createdAt,value
2022-12-06T00:01:14.112Z,102170.63
2022-12-06T00:03:42.023Z,102173.31
2022-12-06T00:06:19.982Z,102176.00
2022-12-06T00:08:47.696Z,102185.91
2022-12-06T00:11:16.788Z,102173.50
2022-12-06T00:13:43.995Z,102176.19
2022-12-06T00:16:16.225Z,102173.50
2022-12-06T00:18:44.178Z,102170.81
2022-12-06T00:21:13.406Z,102170.63
2022-12-06T00:23:43.016Z,102176.19
2022-12-06T00:26:09.486Z,102180.53
2022-12-06T00:28:37.234Z,102180.53
2022-12-06T00:31:08.623Z,102179.72
2022-12-06T00:33:36.167Z,102176.81
2022-12-06T00:36:05.647Z,102176.81
2022-12-06T00:38:34.953Z,102182.19
2022-12-06T00:41:04.243Z,102184.88
2022-12-06T00:43:31.446Z,102180.53
2022-12-06T00:45:57.877Z,102171.44
2022-12-06T00:48:24.281Z,102176.81
2022-12-06T00:50:50.795Z,102176.81
2022-12-06T00:53:17.504Z,102173.09
2022-12-06T00:55:44.415Z,102175.78
2022-12-06T00:58:11.670Z,102181.38
2022-12-06T01:00:38.941Z,102182.00
2022-12-06T01:03:05.528Z,102182.19
2022-12-06T01:05:32.472Z,102169.78
2022-12-06T01:07:58.864Z,102185.72
2022-12-06T01:10:25.926Z,102171.44
2022-12-06T01:12:52.291Z,102180.53
2022-12-06T01:15:18.736Z,102178.69
2022-12-06T01:17:45.186Z,102187.56
2022-12-06T01:20:11.534Z,102177.66
2022-12-06T01:22:37.940Z,102171.44
2022-12-06T01:25:04.510Z,102173.09
2022-12-06T01:27:30.854Z,102174.97
2022-12-06T01:29:57.428Z,102176.81
2022-12-06T01:32:24.015Z,102176.81
2022-12-06T01:34:52.693Z,102180.53
2022-12-06T07:38:52.036Z,102122.91
2022-12-06T07:41:38.039Z,102124.69
2022-12-06T07:44:23.361Z,102127.94
2022-12-06T07:46:49.718Z,102117.97
2022-12-06T07:49:17.341Z,102128.47
2022-12-06T07:51:46.821Z,102138.94
2022-12-06T07:54:14.576Z,102140.53
2022-12-06T07:56:41.640Z,102139.22
2022-12-06T07:59:08.386Z,102136.13
2022-12-06T08:01:34.927Z,102136.28
2022-12-06T08:04:03.079Z,102135.84
2022-12-06T08:06:31.418Z,102131.88
2022-12-06T08:08:57.809Z,102139.09
2022-12-06T08:11:24.643Z,102140.31
2022-12-06T08:13:51.158Z,102142.34
2022-12-06T08:16:17.927Z,102149.75
2022-12-06T08:18:44.634Z,102153.44
2022-12-06T08:21:11.207Z,102148.47
2022-12-06T08:23:37.699Z,102138.13
2022-12-06T08:26:07.291Z,102141.81
2022-12-06T08:28:35.285Z,102141.81
2022-12-06T08:31:10.911Z,102146.53
2022-12-06T08:33:37.897Z,102146.53
2022-12-06T08:36:09.576Z,102149.84
2022-12-06T08:38:37.242Z,102149.66
2022-12-06T08:41:05.057Z,102150.31
2022-12-06T08:43:31.823Z,102146.59
2022-12-06T08:45:58.530Z,102153.44
2022-12-06T08:48:24.950Z,102146.88
2022-12-06T08:50:51.314Z,102151.03
2022-12-06T08:53:17.670Z,102148.63
2022-12-06T08:56:00.376Z,102155.72
2022-12-06T08:58:28.566Z,102145.06
2022-12-06T09:00:54.910Z,102156.69
2022-12-06T09:03:21.264Z,102156.13
2022-12-06T09:05:47.750Z,102151.19
2022-12-06T09:08:14.268Z,102149.78
2022-12-06T09:10:40.649Z,102153.09
2022-12-06T09:13:07.118Z,102152.34
2022-12-06T09:15:33.473Z,102146.59
2022-12-06T09:18:00.687Z,102147.88
2022-12-06T09:20:27.062Z,102149.78
2022-12-06T09:22:53.401Z,102145.03
2022-12-06T09:25:19.809Z,102151.69
2022-12-06T09:27:46.151Z,102152.97
2022-12-06T09:30:12.999Z,102160.00
2022-12-06T09:32:39.379Z,102156.94
2022-12-06T09:35:09.678Z,102157.38
2022-12-06T09:37:38.733Z,102157.00
2022-12-06T09:40:15.716Z,102149.38
2022-12-06T09:42:51.260Z,102150.81
2022-12-06T09:45:36.242Z,102158.09
2022-12-06T09:48:21.991Z,102161.88
2022-12-06T09:51:13.891Z,102155.34
2022-12-06T09:54:11.178Z,102152.50
2022-12-06T09:57:00.728Z,102148.00
2022-12-06T09:59:32.066Z,102161.69
2022-12-06T10:02:19.216Z,102151.34
2022-12-06T10:05:06.703Z,102146.00
2022-12-06T10:08:02.798Z,102141.50
2022-12-06T10:10:38.419Z,102132.00
2022-12-06T10:13:46.273Z,102131.19
2022-12-06T10:16:31.719Z,102136.81
2022-12-06T10:19:16.879Z,102121.75
2022-12-06T10:22:08.134Z,102125.88
2022-12-06T10:24:57.741Z,102121.75
2022-12-06T10:27:38.727Z,102126.56
2022-12-06T10:30:12.127Z,102119.31
2022-12-06T10:32:53.937Z,102119.31
2022-12-06T10:35:27.093Z,102120.97
2022-12-06T10:38:24.049Z,102113.53
2022-12-06T10:41:04.797Z,102116.44
2022-12-06T10:43:55.854Z,102112.53
2022-12-06T10:46:58.686Z,102115.63
2022-12-06T10:49:31.792Z,102110.88
2022-12-06T10:52:08.100Z,102110.25
2022-12-06T10:54:41.385Z,102106.34
2022-12-06T10:57:15.778Z,102113.16
2022-12-06T11:00:03.111Z,102109.88
2022-12-06T11:02:46.695Z,102108.44
2022-12-06T11:05:22.915Z,102105.34
2022-12-06T11:07:54.974Z,102104.31
2022-12-06T11:10:28.565Z,102110.94
2022-12-06T11:13:01.838Z,102113.22
2022-12-06T11:15:35.299Z,102110.31
2022-12-06T11:18:16.218Z,102108.03
2022-12-06T11:20:49.228Z,102102.25
2022-12-06T11:23:30.463Z,102098.31
2022-12-06T11:26:15.314Z,102105.16
2022-12-06T11:28:45.838Z,102100.41
2022-12-06T11:31:28.058Z,102096.66
2022-12-06T11:33:54.884Z,102098.28
2022-12-06T11:36:22.847Z,102088.38
2022-12-06T11:38:49.211Z,102090.84
2022-12-06T11:41:22.501Z,102089.19
2022-12-06T11:43:49.530Z,102078.41
2022-12-06T11:46:15.990Z,102077.19
2022-12-06T11:48:42.862Z,102076.97
2022-12-06T11:51:35.670Z,102068.88
2022-12-06T11:54:33.850Z,102058.13
2022-12-06T11:57:10.899Z,102061.44
2022-12-06T11:59:37.247Z,102063.94
2022-12-06T12:02:04.132Z,102071.78
2022-12-06T12:04:42.634Z,102066.41
2022-12-06T12:07:08.923Z,102064.34
2022-12-06T12:09:44.663Z,102062.69
2022-12-06T12:12:20.906Z,102062.25
2022-12-06T12:14:56.094Z,102066.59
2022-12-06T12:17:28.876Z,102065.78
2022-12-06T12:20:00.747Z,102058.53
2022-12-06T12:22:42.771Z,102062.88
2022-12-06T12:25:27.509Z,102047.59
2022-12-06T12:27:59.137Z,102046.34
2022-12-06T12:30:35.358Z,102044.25
2022-12-06T12:33:07.568Z,102043.22
2022-12-06T12:35:38.697Z,102057.31
2022-12-06T12:38:15.447Z,102051.72
2022-12-06T12:40:48.715Z,102042.81
2022-12-06T12:43:20.887Z,102046.13
2022-12-06T12:46:13.670Z,102042.38
2022-12-06T12:48:42.753Z,102037.00
2022-12-06T12:51:33.631Z,102025.81
2022-12-06T12:54:18.200Z,102025.81
2022-12-06T12:56:44.602Z,102027.88
2022-12-06T12:59:18.143Z,102027.47
2022-12-06T13:02:15.557Z,102021.03
2022-12-06T13:05:17.367Z,102014.59
2022-12-06T13:07:46.625Z,102017.31
2022-12-06T13:10:36.091Z,102017.31
2022-12-06T13:13:16.283Z,102021.66
2022-12-06T13:15:47.260Z,102011.72
2022-12-06T13:18:22.232Z,102011.72
2022-12-06T13:20:49.923Z,102015.22
2022-12-06T13:23:27.170Z,102008.81
2022-12-06T13:26:02.575Z,102010.47
2022-12-06T13:28:34.956Z,102005.06
2022-12-06T13:31:11.869Z,102007.56
2022-12-06T13:33:47.614Z,102001.13
2022-12-06T13:36:15.639Z,102005.50
2022-12-06T13:38:42.889Z,102000.91
2022-12-06T13:41:14.436Z,102001.53
2022-12-06T13:43:40.708Z,102002.16
2022-12-06T13:46:07.271Z,102008.38
2022-12-06T13:48:33.665Z,102001.94
2022-12-06T13:51:02.078Z,102000.50
2022-12-06T13:53:33.773Z,101996.16
2022-12-06T13:56:21.683Z,102003.19
2022-12-06T13:58:53.854Z,101994.28
2022-12-06T14:01:53.699Z,102000.72
2022-12-06T14:09:39.635Z,101997.59
2022-12-06T14:12:19.842Z,101990.78
2022-12-06T14:14:57.064Z,101996.38
2022-12-06T14:17:59.454Z,101991.00
2022-12-06T14:20:24.305Z,101988.72
2022-12-06T14:22:51.000Z,101987.91
2022-12-06T14:25:23.590Z,101980.00
2022-12-06T14:27:52.561Z,101981.06
2022-12-06T14:30:26.159Z,101974.84
2022-12-06T14:32:55.145Z,101980.44
2022-12-06T14:35:24.539Z,101978.59
2022-12-06T14:38:00.126Z,101974.44
2022-12-06T14:40:55.518Z,101971.75
2022-12-06T14:43:24.623Z,101971.75
2022-12-06T14:45:52.799Z,101966.59
2022-12-06T14:48:20.930Z,101966.59
2022-12-06T14:51:00.703Z,101969.47
2022-12-06T14:53:36.223Z,101962.44
2022-12-06T14:56:31.941Z,101969.69
2022-12-06T14:59:02.174Z,101964.50
2022-12-06T15:01:34.551Z,101955.81
2022-12-06T15:04:07.995Z,101961.19
2022-12-06T15:06:37.782Z,101959.53
2022-12-06T15:09:12.375Z,101959.53
2022-12-06T15:12:02.249Z,101955.16
2022-12-06T15:14:47.306Z,101952.47
2022-12-06T15:17:13.593Z,101951.22
2022-12-06T15:19:46.403Z,101945.47
2022-12-06T15:22:24.908Z,101942.34
2022-12-06T15:24:55.206Z,101940.06
2022-12-06T15:27:23.214Z,101944.84
2022-12-06T15:29:50.101Z,101943.22
2022-12-06T15:32:18.386Z,101946.94
2022-12-06T15:34:45.192Z,101941.75
2022-12-06T15:40:02.088Z,101953.38
2022-12-06T15:42:28.725Z,101939.91
2022-12-06T15:44:55.322Z,101934.53
2022-12-06T15:47:21.696Z,101935.56
2022-12-06T15:49:50.892Z,101936.59
2022-12-06T15:52:19.766Z,101936.59
2022-12-06T15:54:46.279Z,101947.38
2022-12-06T15:57:12.738Z,101941.13
2022-12-06T15:59:39.106Z,101946.75
2022-12-06T16:02:13.142Z,101946.75
2022-12-06T16:04:40.410Z,101935.97
2022-12-06T16:07:06.872Z,101945.09
2022-12-06T16:09:33.434Z,101938.06
2022-12-06T16:11:59.779Z,101931.00
2022-12-06T16:14:26.120Z,101943.44
2022-12-06T16:16:52.561Z,101939.09
2022-12-06T16:19:18.915Z,101935.78
2022-12-06T16:21:53.972Z,101943.84
2022-12-06T16:24:20.839Z,101944.88
2022-12-06T16:26:47.818Z,101945.09
2022-12-06T16:29:20.857Z,101944.03
2022-12-06T16:31:47.797Z,101942.19
2022-12-06T16:34:14.732Z,101943.25
2022-12-06T16:39:50.087Z,101929.78
2022-12-06T16:42:16.421Z,101927.09
2022-12-06T16:44:51.212Z,101930.19
2022-12-06T16:47:17.926Z,101930.63
2022-12-06T16:49:46.454Z,101923.56
2022-12-06T16:52:13.730Z,101926.47
2022-12-06T16:54:41.465Z,101923.38
2022-12-06T16:57:09.841Z,101922.75
2022-12-06T16:59:36.277Z,101921.53
2022-12-06T17:02:03.117Z,101908.25
2022-12-06T17:04:31.551Z,101908.69
2022-12-06T17:06:58.156Z,101916.97
2022-12-06T17:09:25.554Z,101914.06
2022-12-06T17:12:06.048Z,101917.38
2022-12-06T17:14:33.083Z,101921.94
2022-12-06T17:17:03.772Z,101916.56
2022-12-06T17:19:31.719Z,101910.75
2022-12-06T17:21:58.388Z,101916.97
2022-12-06T17:24:26.166Z,101913.22
2022-12-06T17:26:55.855Z,101918.63
2022-12-06T17:29:23.491Z,101913.22
2022-12-06T17:31:50.493Z,101910.34
2022-12-06T17:34:17.435Z,101902.91
2022-12-06T17:36:44.067Z,101898.56
2022-12-06T17:39:14.027Z,101905.78
2022-12-06T17:41:59.021Z,101895.88
2022-12-06T17:44:25.376Z,101894.81
2022-12-06T17:46:51.950Z,101886.53
2022-12-06T17:49:21.343Z,101890.47
2022-12-06T17:51:48.150Z,101892.56
2022-12-06T17:54:15.523Z,101895.03
2022-12-06T17:56:44.428Z,101895.47
2022-12-06T17:59:17.504Z,101893.41
2022-12-06T18:02:13.539Z,101895.47
2022-12-06T18:04:31.441Z,101891.53
2022-12-06T18:06:58.530Z,101891.31
2022-12-06T18:09:25.049Z,101897.31
2022-12-06T18:11:51.406Z,101902.50
2022-12-06T18:14:19.436Z,101899.19
2022-12-06T18:16:47.977Z,101896.91
2022-12-06T18:19:17.038Z,101905.19
2022-12-06T18:21:43.766Z,101902.91
2022-12-06T18:24:21.447Z,101906.63
2022-12-06T18:26:49.175Z,101907.03
2022-12-06T18:29:18.334Z,101903.72
2022-12-06T18:31:44.843Z,101910.34
2022-12-06T18:34:12.212Z,101900.84
2022-12-06T18:36:38.684Z,101906.63
2022-12-06T18:39:12.571Z,101891.94
2022-12-06T18:41:40.723Z,101899.19
2022-12-06T18:44:08.118Z,101890.69
2022-12-06T18:46:34.556Z,101897.09
2022-12-06T18:49:02.433Z,101892.75
2022-12-06T18:51:32.212Z,101900.00
2022-12-06T18:54:00.595Z,101897.09
2022-12-06T18:56:27.693Z,101894.22
2022-12-06T18:58:54.281Z,101898.34
2022-12-06T19:01:27.406Z,101900.63
2022-12-06T19:03:55.532Z,101892.56
2022-12-06T19:06:24.478Z,101890.47
2022-12-06T19:08:53.530Z,101898.56
2022-12-06T19:11:21.044Z,101888.41
2022-12-06T19:13:55.749Z,101895.44
2022-12-06T19:16:26.665Z,101904.13
2022-12-06T19:18:55.293Z,101898.75
2022-12-06T19:21:22.136Z,101902.91
2022-12-06T19:23:48.708Z,101902.06
2022-12-06T19:26:15.047Z,101894.84
2022-12-06T19:28:41.697Z,101897.53
2022-12-06T19:31:11.692Z,101898.97
2022-12-06T19:33:40.558Z,101901.66
2022-12-06T19:36:11.118Z,101904.34
2022-12-06T19:38:37.583Z,101903.31
2022-12-06T19:41:05.717Z,101905.38
2022-12-06T19:43:51.198Z,101899.19
2022-12-06T19:46:24.325Z,101903.72
2022-12-06T19:48:50.888Z,101904.13
2022-12-06T19:51:17.606Z,101904.97
2022-12-06T19:53:44.692Z,101899.59
2022-12-06T19:56:13.743Z,101898.75
2022-12-06T19:58:40.794Z,101900.84
2022-12-06T20:01:09.241Z,101896.91
2022-12-06T20:03:36.424Z,101903.31
2022-12-06T20:06:11.825Z,101901.66
2022-12-06T20:08:40.630Z,101909.09
2022-12-06T20:11:29.527Z,101904.34
2022-12-06T20:14:02.119Z,101898.34
2022-12-06T20:16:28.771Z,101896.69
2022-12-06T20:18:55.154Z,101904.75
2022-12-06T20:21:21.606Z,101900.00
2022-12-06T20:23:47.979Z,101895.84
2022-12-06T20:26:15.189Z,101904.94
2022-12-06T20:28:46.521Z,101904.53
2022-12-06T20:31:22.963Z,101913.41
2022-12-06T20:33:49.766Z,101916.09
2022-12-06T20:36:18.276Z,101910.72
2022-12-06T20:38:45.075Z,101905.97
2022-12-06T20:41:13.723Z,101908.47
2022-12-06T20:43:41.387Z,101904.53
2022-12-06T20:46:18.700Z,101893.38
2022-12-06T20:48:46.019Z,101892.16
2022-12-06T20:51:18.062Z,101894.63
2022-12-06T20:53:47.336Z,101893.41
2022-12-06T20:56:19.618Z,101902.09
2022-12-06T20:58:48.173Z,101902.91
2022-12-06T21:01:19.922Z,101895.44
2022-12-06T21:03:47.578Z,101892.75
2022-12-06T21:06:14.485Z,101893.78
2022-12-06T21:08:40.851Z,101892.56
2022-12-06T21:11:24.222Z,101893.38
2022-12-06T21:13:56.072Z,101896.69
2022-12-06T21:16:26.351Z,101893.81
2022-12-06T21:19:01.711Z,101886.56
2022-12-06T21:21:32.454Z,101892.16
2022-12-06T21:24:00.647Z,101889.03
2022-12-06T21:26:28.202Z,101888.41
2022-12-06T21:28:54.705Z,101888.03
2022-12-06T21:31:26.674Z,101898.97
2022-12-06T21:33:53.162Z,101894.00
2022-12-06T21:36:19.528Z,101890.06
2022-12-06T21:38:45.883Z,101889.84
2022-12-06T21:41:13.483Z,101893.16
2022-12-06T21:43:40.104Z,101897.50
2022-12-06T21:46:10.260Z,101899.97
2022-12-06T21:48:36.686Z,101898.72
2022-12-06T21:51:05.867Z,101889.81
2022-12-06T21:53:32.617Z,101889.19
2022-12-06T21:55:59.074Z,101892.50
2022-12-06T21:58:25.989Z,101897.69
2022-12-06T22:00:52.324Z,101893.34
2022-12-06T22:03:22.993Z,101896.63
2022-12-06T22:05:49.838Z,101887.56
2022-12-06T22:08:16.257Z,101894.13
2022-12-06T22:10:42.671Z,101899.09
2022-12-06T22:13:09.349Z,101892.47
2022-12-06T22:15:35.998Z,101892.03
2022-12-06T22:18:02.518Z,101889.34
2022-12-06T22:20:28.957Z,101889.75
2022-12-06T22:22:55.325Z,101900.25
2022-12-06T22:25:21.713Z,101902.31
2022-12-06T22:27:48.090Z,101898.19
2022-12-06T22:30:14.600Z,101897.75
2022-12-06T22:32:40.943Z,101905.19
2022-12-06T22:35:07.710Z,101903.53
2022-12-06T22:37:36.921Z,101911.78
2022-12-06T22:40:03.981Z,101909.28
2022-12-06T22:42:33.268Z,101911.34
2022-12-06T22:44:59.626Z,101915.69
2022-12-06T22:47:26.044Z,101909.69
2022-12-06T22:49:52.453Z,101904.53
2022-12-06T22:52:18.781Z,101915.47
2022-12-06T22:54:46.444Z,101906.78
2022-12-06T22:57:12.783Z,101900.16
2022-12-06T22:59:39.124Z,101895.19
2022-12-06T23:02:05.581Z,101905.09
2022-12-06T23:04:32.083Z,101907.16
2022-12-06T23:06:58.459Z,101904.22
2022-12-06T23:09:25.187Z,101893.88
2022-12-06T23:11:51.604Z,101892.63
2022-12-06T23:14:17.966Z,101896.34
2022-12-06T23:16:45.313Z,101892.56
2022-12-06T23:19:11.839Z,101898.78
2022-12-06T23:21:40.668Z,101901.47
2022-12-06T23:24:09.852Z,101900.00
2022-12-06T23:26:41.122Z,101904.75
2022-12-06T23:29:08.252Z,101898.75
2022-12-06T23:31:37.898Z,101902.47
2022-12-06T23:34:11.625Z,101904.53
2022-12-06T23:36:38.277Z,101899.97
2022-12-06T23:39:06.035Z,101902.22
2022-12-06T23:41:33.971Z,101899.94
2022-12-06T23:44:00.861Z,101906.13
2022-12-06T23:46:33.243Z,101907.16
2022-12-06T23:49:00.618Z,101902.63
2022-12-06T23:51:35.857Z,101899.09
2022-12-06T23:54:05.665Z,101899.09
2022-12-06T23:56:35.012Z,101889.22
2022-12-06T23:59:02.470Z,101898.91
